sensor_id;sensor_type;location;lat;lon;timestamp;P1;durP1;ratioP1;P2;durP2;ratioP2
50281;SDS011;36176;51.506;10.272;2023-05-19T00:01:20;4.40;;;4.00;;
50281;SDS011;36176;51.506;10.272;2023-05-19T00:03:51;4.27;;;3.97;;
50281;SDS011;36176;51.506;10.272;2023-05-19T00:06:23;4.17;;;3.77;;
50281;SDS011;36176;51.506;10.272;2023-05-19T00:09:06;7.33;;;6.30;;
50281;SDS011;36176;51.506;10.272;2023-05-19T00:11:38;4.33;;;3.93;;
50281;SDS011;36176;51.506;10.272;2023-05-19T00:14:06;5.70;;;5.10;;
50281;SDS011;36176;51.506;10.272;2023-05-19T00:16:35;5.60;;;4.40;;
50281;SDS011;36176;51.506;10.272;2023-05-19T00:19:08;4.23;;;3.60;;
50281;SDS011;36176;51.506;10.272;2023-05-19T00:21:38;5.70;;;4.10;;
50281;SDS011;36176;51.506;10.272;2023-05-19T00:24:06;6.03;;;3.23;;
50281;SDS011;36176;51.506;10.272;2023-05-19T00:26:33;4.97;;;4.43;;
50281;SDS011;36176;51.506;10.272;2023-05-19T00:29:00;4.00;;;3.70;;
50281;SDS011;36176;51.506;10.272;2023-05-19T00:31:27;4.10;;;3.63;;
50281;SDS011;36176;51.506;10.272;2023-05-19T00:33:54;4.27;;;3.87;;
50281;SDS011;36176;51.506;10.272;2023-05-19T00:36:23;5.13;;;3.27;;
50281;SDS011;36176;51.506;10.272;2023-05-19T00:38:50;4.10;;;3.80;;
50281;SDS011;36176;51.506;10.272;2023-05-19T00:41:18;3.93;;;3.53;;
50281;SDS011;36176;51.506;10.272;2023-05-19T00:43:47;5.13;;;3.43;;
50281;SDS011;36176;51.506;10.272;2023-05-19T00:46:15;3.63;;;2.97;;
50281;SDS011;36176;51.506;10.272;2023-05-19T00:48:42;4.17;;;3.77;;
50281;SDS011;36176;51.506;10.272;2023-05-19T00:51:11;5.13;;;4.33;;
50281;SDS011;36176;51.506;10.272;2023-05-19T00:53:42;7.17;;;6.47;;
50281;SDS011;36176;51.506;10.272;2023-05-19T00:56:14;4.80;;;3.00;;
50281;SDS011;36176;51.506;10.272;2023-05-19T00:58:43;4.80;;;3.80;;
50281;SDS011;36176;51.506;10.272;2023-05-19T01:01:11;6.50;;;4.77;;
50281;SDS011;36176;51.506;10.272;2023-05-19T01:03:40;4.83;;;3.67;;
50281;SDS011;36176;51.506;10.272;2023-05-19T01:06:08;6.50;;;5.93;;
50281;SDS011;36176;51.506;10.272;2023-05-19T01:08:38;5.67;;;4.40;;
50281;SDS011;36176;51.506;10.272;2023-05-19T01:11:05;4.57;;;3.83;;
50281;SDS011;36176;51.506;10.272;2023-05-19T01:13:33;4.53;;;3.67;;
50281;SDS011;36176;51.506;10.272;2023-05-19T01:16:04;3.63;;;3.30;;
50281;SDS011;36176;51.506;10.272;2023-05-19T01:24:31;3.50;;;3.10;;
50281;SDS011;36176;51.506;10.272;2023-05-19T01:33:07;4.53;;;3.40;;
50281;SDS011;36176;51.506;10.272;2023-05-19T01:35:37;5.13;;;3.43;;
50281;SDS011;36176;51.506;10.272;2023-05-19T01:38:07;4.53;;;3.70;;
50281;SDS011;36176;51.506;10.272;2023-05-19T01:40:38;4.70;;;4.00;;
50281;SDS011;36176;51.506;10.272;2023-05-19T01:43:08;4.73;;;4.23;;
50281;SDS011;36176;51.506;10.272;2023-05-19T01:45:37;5.27;;;3.70;;
50281;SDS011;36176;51.506;10.272;2023-05-19T01:48:06;4.53;;;4.13;;
50281;SDS011;36176;51.506;10.272;2023-05-19T01:50:36;4.63;;;4.23;;
50281;SDS011;36176;51.506;10.272;2023-05-19T01:53:04;5.23;;;3.70;;
50281;SDS011;36176;51.506;10.272;2023-05-19T01:55:41;4.03;;;3.67;;
50281;SDS011;36176;51.506;10.272;2023-05-19T01:58:19;4.23;;;3.70;;
50281;SDS011;36176;51.506;10.272;2023-05-19T02:06:54;3.70;;;2.87;;
50281;SDS011;36176;51.506;10.272;2023-05-19T02:09:54;3.77;;;3.13;;
50281;SDS011;36176;51.506;10.272;2023-05-19T02:12:36;5.00;;;3.10;;
50281;SDS011;36176;51.506;10.272;2023-05-19T02:15:06;3.50;;;2.97;;
50281;SDS011;36176;51.506;10.272;2023-05-19T02:17:36;3.93;;;3.63;;
50281;SDS011;36176;51.506;10.272;2023-05-19T02:20:07;4.23;;;3.80;;
50281;SDS011;36176;51.506;10.272;2023-05-19T02:22:35;6.07;;;5.13;;
50281;SDS011;36176;51.506;10.272;2023-05-19T02:25:02;6.47;;;3.60;;
50281;SDS011;36176;51.506;10.272;2023-05-19T02:27:30;5.00;;;4.60;;
50281;SDS011;36176;51.506;10.272;2023-05-19T02:29:57;4.20;;;3.90;;
50281;SDS011;36176;51.506;10.272;2023-05-19T02:32:24;5.87;;;5.30;;
50281;SDS011;36176;51.506;10.272;2023-05-19T02:34:51;6.37;;;5.63;;
50281;SDS011;36176;51.506;10.272;2023-05-19T02:37:19;5.97;;;5.40;;
50281;SDS011;36176;51.506;10.272;2023-05-19T02:39:49;6.77;;;6.23;;
50281;SDS011;36176;51.506;10.272;2023-05-19T02:42:16;4.57;;;4.13;;
50281;SDS011;36176;51.506;10.272;2023-05-19T02:44:44;4.60;;;4.23;;
50281;SDS011;36176;51.506;10.272;2023-05-19T02:47:12;6.93;;;5.17;;
50281;SDS011;36176;51.506;10.272;2023-05-19T02:49:39;4.83;;;4.43;;
50281;SDS011;36176;51.506;10.272;2023-05-19T02:52:06;4.43;;;4.03;;
50281;SDS011;36176;51.506;10.272;2023-05-19T02:54:33;3.80;;;3.20;;
50281;SDS011;36176;51.506;10.272;2023-05-19T02:57:01;5.57;;;4.40;;
50281;SDS011;36176;51.506;10.272;2023-05-19T02:59:28;6.50;;;4.63;;
50281;SDS011;36176;51.506;10.272;2023-05-19T03:01:59;5.17;;;4.17;;
50281;SDS011;36176;51.506;10.272;2023-05-19T03:04:27;4.40;;;3.57;;
50281;SDS011;36176;51.506;10.272;2023-05-19T03:06:55;8.07;;;7.47;;
50281;SDS011;36176;51.506;10.272;2023-05-19T03:09:23;6.80;;;6.17;;
50281;SDS011;36176;51.506;10.272;2023-05-19T03:11:50;4.13;;;3.73;;
50281;SDS011;36176;51.506;10.272;2023-05-19T03:14:17;5.40;;;4.90;;
50281;SDS011;36176;51.506;10.272;2023-05-19T03:16:49;4.10;;;3.67;;
50281;SDS011;36176;51.506;10.272;2023-05-19T03:19:17;5.20;;;3.83;;
50281;SDS011;36176;51.506;10.272;2023-05-19T03:21:44;4.37;;;3.97;;
50281;SDS011;36176;51.506;10.272;2023-05-19T03:24:12;6.87;;;4.30;;
50281;SDS011;36176;51.506;10.272;2023-05-19T03:26:39;2.97;;;2.57;;
50281;SDS011;36176;51.506;10.272;2023-05-19T03:29:06;3.37;;;3.07;;
50281;SDS011;36176;51.506;10.272;2023-05-19T03:31:33;5.67;;;3.27;;
50281;SDS011;36176;51.506;10.272;2023-05-19T03:34:01;5.70;;;5.20;;
50281;SDS011;36176;51.506;10.272;2023-05-19T03:36:29;3.60;;;3.23;;
50281;SDS011;36176;51.506;10.272;2023-05-19T03:39:05;7.83;;;7.10;;
50281;SDS011;36176;51.506;10.272;2023-05-19T03:41:32;4.13;;;3.83;;
50281;SDS011;36176;51.506;10.272;2023-05-19T03:43:59;5.80;;;5.30;;
50281;SDS011;36176;51.506;10.272;2023-05-19T03:46:27;7.07;;;5.40;;
50281;SDS011;36176;51.506;10.272;2023-05-19T03:48:54;6.60;;;5.53;;
50281;SDS011;36176;51.506;10.272;2023-05-19T03:51:21;5.83;;;5.33;;
50281;SDS011;36176;51.506;10.272;2023-05-19T03:53:49;5.40;;;3.93;;
50281;SDS011;36176;51.506;10.272;2023-05-19T03:56:16;5.60;;;4.03;;
50281;SDS011;36176;51.506;10.272;2023-05-19T03:58:43;5.83;;;5.33;;
50281;SDS011;36176;51.506;10.272;2023-05-19T04:01:12;6.23;;;5.27;;
50281;SDS011;36176;51.506;10.272;2023-05-19T04:03:39;6.63;;;6.03;;
50281;SDS011;36176;51.506;10.272;2023-05-19T04:06:07;5.03;;;4.57;;
50281;SDS011;36176;51.506;10.272;2023-05-19T04:08:34;5.67;;;4.90;;
50281;SDS011;36176;51.506;10.272;2023-05-19T04:11:01;4.93;;;4.13;;
50281;SDS011;36176;51.506;10.272;2023-05-19T04:13:29;5.27;;;4.77;;
50281;SDS011;36176;51.506;10.272;2023-05-19T04:15:58;5.40;;;4.77;;
50281;SDS011;36176;51.506;10.272;2023-05-19T04:18:25;4.73;;;3.97;;
50281;SDS011;36176;51.506;10.272;2023-05-19T04:20:54;6.37;;;4.73;;
50281;SDS011;36176;51.506;10.272;2023-05-19T04:23:21;5.37;;;4.90;;
50281;SDS011;36176;51.506;10.272;2023-05-19T04:25:49;5.47;;;4.47;;
50281;SDS011;36176;51.506;10.272;2023-05-19T04:28:16;7.43;;;4.57;;
50281;SDS011;36176;51.506;10.272;2023-05-19T04:30:46;4.00;;;3.70;;
50281;SDS011;36176;51.506;10.272;2023-05-19T04:33:13;5.20;;;4.23;;
50281;SDS011;36176;51.506;10.272;2023-05-19T04:35:40;4.43;;;4.03;;
50281;SDS011;36176;51.506;10.272;2023-05-19T04:38:07;4.23;;;3.93;;
50281;SDS011;36176;51.506;10.272;2023-05-19T04:40:35;6.70;;;4.43;;
50281;SDS011;36176;51.506;10.272;2023-05-19T04:43:02;5.10;;;4.70;;
50281;SDS011;36176;51.506;10.272;2023-05-19T04:45:29;4.87;;;3.50;;
50281;SDS011;36176;51.506;10.272;2023-05-19T04:47:58;6.23;;;4.27;;
50281;SDS011;36176;51.506;10.272;2023-05-19T04:50:26;4.47;;;3.57;;
50281;SDS011;36176;51.506;10.272;2023-05-19T04:53:08;4.23;;;3.10;;
50281;SDS011;36176;51.506;10.272;2023-05-19T04:55:36;5.93;;;3.43;;
50281;SDS011;36176;51.506;10.272;2023-05-19T04:58:07;4.90;;;3.30;;
50281;SDS011;36176;51.506;10.272;2023-05-19T05:00:35;4.40;;;3.10;;
50281;SDS011;36176;51.506;10.272;2023-05-19T05:03:02;4.37;;;2.83;;
50281;SDS011;36176;51.506;10.272;2023-05-19T05:05:31;3.87;;;2.60;;
50281;SDS011;36176;51.506;10.272;2023-05-19T05:07:59;3.77;;;2.60;;
50281;SDS011;36176;51.506;10.272;2023-05-19T17:13:09;5.72;;;5.22;;
50281;SDS011;36176;51.506;10.272;2023-05-19T17:15:37;5.05;;;2.22;;
50281;SDS011;36176;51.506;10.272;2023-05-19T17:18:07;2.67;;;1.90;;
50281;SDS011;36176;51.506;10.272;2023-05-19T17:20:37;2.60;;;1.73;;
50281;SDS011;36176;51.506;10.272;2023-05-19T17:23:04;3.88;;;2.65;;
50281;SDS011;36176;51.506;10.272;2023-05-19T17:25:31;1.48;;;1.38;;
50281;SDS011;36176;51.506;10.272;2023-05-19T17:27:59;6.32;;;1.98;;
50281;SDS011;36176;51.506;10.272;2023-05-19T17:30:26;2.00;;;1.90;;
50281;SDS011;36176;51.506;10.272;2023-05-19T17:32:53;2.03;;;1.83;;
50281;SDS011;36176;51.506;10.272;2023-05-19T17:35:21;2.72;;;1.80;;
50281;SDS011;36176;51.506;10.272;2023-05-19T17:37:48;2.83;;;2.10;;
50281;SDS011;36176;51.506;10.272;2023-05-19T17:40:15;3.05;;;1.70;;
50281;SDS011;36176;51.506;10.272;2023-05-19T17:42:43;3.13;;;1.65;;
50281;SDS011;36176;51.506;10.272;2023-05-19T17:45:10;1.70;;;1.60;;
50281;SDS011;36176;51.506;10.272;2023-05-19T17:47:38;1.63;;;1.40;;
50281;SDS011;36176;51.506;10.272;2023-05-19T17:50:05;2.58;;;1.50;;
50281;SDS011;36176;51.506;10.272;2023-05-19T17:52:36;2.55;;;1.63;;
50281;SDS011;36176;51.506;10.272;2023-05-19T17:55:22;1.50;;;1.40;;
50281;SDS011;36176;51.506;10.272;2023-05-19T17:58:14;1.53;;;1.27;;
50281;SDS011;36176;51.506;10.272;2023-05-19T18:00:43;3.38;;;1.58;;
50281;SDS011;36176;51.506;10.272;2023-05-19T18:03:10;2.77;;;1.77;;
50281;SDS011;36176;51.506;10.272;2023-05-19T18:05:38;1.98;;;1.60;;
50281;SDS011;36176;51.506;10.272;2023-05-19T18:08:05;2.90;;;1.90;;
50281;SDS011;36176;51.506;10.272;2023-05-19T18:10:36;4.27;;;1.70;;
50281;SDS011;36176;51.506;10.272;2023-05-19T18:13:08;2.00;;;1.80;;
50281;SDS011;36176;51.506;10.272;2023-05-19T18:15:36;2.93;;;1.50;;
50281;SDS011;36176;51.506;10.272;2023-05-19T18:18:03;2.60;;;1.50;;
50281;SDS011;36176;51.506;10.272;2023-05-19T18:20:33;2.30;;;1.83;;
50281;SDS011;36176;51.506;10.272;2023-05-19T18:23:00;1.50;;;1.40;;
50281;SDS011;36176;51.506;10.272;2023-05-19T18:25:29;2.80;;;1.50;;
50281;SDS011;36176;51.506;10.272;2023-05-19T18:27:56;3.60;;;1.60;;
50281;SDS011;36176;51.506;10.272;2023-05-19T18:30:23;4.03;;;1.73;;
50281;SDS011;36176;51.506;10.272;2023-05-19T18:32:50;3.33;;;1.70;;
50281;SDS011;36176;51.506;10.272;2023-05-19T18:35:17;1.83;;;1.60;;
50281;SDS011;36176;51.506;10.272;2023-05-19T18:37:46;2.90;;;1.70;;
50281;SDS011;36176;51.506;10.272;2023-05-19T18:40:13;3.77;;;2.57;;
50281;SDS011;36176;51.506;10.272;2023-05-19T18:42:40;2.17;;;1.60;;
50281;SDS011;36176;51.506;10.272;2023-05-19T18:45:08;4.40;;;1.50;;
50281;SDS011;36176;51.506;10.272;2023-05-19T18:47:35;2.17;;;1.73;;
50281;SDS011;36176;51.506;10.272;2023-05-19T18:50:02;2.60;;;1.50;;
50281;SDS011;36176;51.506;10.272;2023-05-19T18:52:30;1.90;;;1.53;;
50281;SDS011;36176;51.506;10.272;2023-05-19T18:54:58;3.23;;;1.50;;
50281;SDS011;36176;51.506;10.272;2023-05-19T18:57:27;2.60;;;1.93;;
50281;SDS011;36176;51.506;10.272;2023-05-19T18:59:54;2.27;;;1.67;;
50281;SDS011;36176;51.506;10.272;2023-05-19T19:02:22;3.17;;;1.73;;
50281;SDS011;36176;51.506;10.272;2023-05-19T19:04:49;1.97;;;1.60;;
50281;SDS011;36176;51.506;10.272;2023-05-19T19:07:16;1.87;;;1.70;;
50281;SDS011;36176;51.506;10.272;2023-05-19T19:09:44;1.70;;;1.60;;
50281;SDS011;36176;51.506;10.272;2023-05-19T19:12:11;2.97;;;1.80;;
50281;SDS011;36176;51.506;10.272;2023-05-19T19:14:38;1.63;;;1.53;;
50281;SDS011;36176;51.506;10.272;2023-05-19T19:17:06;2.03;;;1.83;;
50281;SDS011;36176;51.506;10.272;2023-05-19T19:19:33;2.00;;;1.80;;
50281;SDS011;36176;51.506;10.272;2023-05-19T19:22:01;2.47;;;1.73;;
50281;SDS011;36176;51.506;10.272;2023-05-19T19:24:28;2.13;;;1.93;;
50281;SDS011;36176;51.506;10.272;2023-05-19T19:26:56;2.43;;;2.13;;
50281;SDS011;36176;51.506;10.272;2023-05-19T19:29:23;1.90;;;1.80;;
50281;SDS011;36176;51.506;10.272;2023-05-19T19:31:50;2.50;;;2.10;;
50281;SDS011;36176;51.506;10.272;2023-05-19T19:34:18;2.77;;;2.03;;
50281;SDS011;36176;51.506;10.272;2023-05-19T19:36:45;2.23;;;1.90;;
50281;SDS011;36176;51.506;10.272;2023-05-19T19:39:13;2.20;;;2.00;;
50281;SDS011;36176;51.506;10.272;2023-05-19T19:41:40;4.13;;;1.83;;
50281;SDS011;36176;51.506;10.272;2023-05-19T19:44:08;2.10;;;1.87;;
50281;SDS011;36176;51.506;10.272;2023-05-19T19:46:35;2.47;;;1.83;;
50281;SDS011;36176;51.506;10.272;2023-05-19T19:49:02;3.03;;;2.10;;
50281;SDS011;36176;51.506;10.272;2023-05-19T19:51:29;2.40;;;2.20;;
50281;SDS011;36176;51.506;10.272;2023-05-19T19:53:57;3.23;;;2.93;;
50281;SDS011;36176;51.506;10.272;2023-05-19T19:56:24;3.33;;;3.13;;
50281;SDS011;36176;51.506;10.272;2023-05-19T19:58:53;6.30;;;4.03;;
50281;SDS011;36176;51.506;10.272;2023-05-19T20:01:24;4.00;;;3.60;;
50281;SDS011;36176;51.506;10.272;2023-05-19T20:03:54;4.50;;;4.10;;
50281;SDS011;36176;51.506;10.272;2023-05-19T20:06:22;3.70;;;3.40;;
50281;SDS011;36176;51.506;10.272;2023-05-19T20:08:50;3.17;;;2.97;;
50281;SDS011;36176;51.506;10.272;2023-05-19T20:11:17;2.50;;;2.30;;
50281;SDS011;36176;51.506;10.272;2023-05-19T20:13:45;2.67;;;2.47;;
50281;SDS011;36176;51.506;10.272;2023-05-19T20:16:13;2.30;;;2.20;;
50281;SDS011;36176;51.506;10.272;2023-05-19T20:18:40;2.60;;;2.40;;
50281;SDS011;36176;51.506;10.272;2023-05-19T20:21:07;2.07;;;1.97;;
50281;SDS011;36176;51.506;10.272;2023-05-19T20:23:34;2.43;;;2.23;;
50281;SDS011;36176;51.506;10.272;2023-05-19T20:26:04;3.73;;;3.40;;
50281;SDS011;36176;51.506;10.272;2023-05-19T20:28:38;4.53;;;4.10;;
50281;SDS011;36176;51.506;10.272;2023-05-19T20:31:06;7.00;;;6.30;;
50281;SDS011;36176;51.506;10.272;2023-05-19T20:33:33;4.47;;;4.17;;
50281;SDS011;36176;51.506;10.272;2023-05-19T20:36:00;5.10;;;4.70;;
50281;SDS011;36176;51.506;10.272;2023-05-19T20:38:27;3.50;;;3.20;;
50281;SDS011;36176;51.506;10.272;2023-05-19T20:40:54;4.30;;;4.00;;
50281;SDS011;36176;51.506;10.272;2023-05-19T20:43:22;4.57;;;3.97;;
50281;SDS011;36176;51.506;10.272;2023-05-19T20:45:49;4.00;;;3.70;;
50281;SDS011;36176;51.506;10.272;2023-05-19T20:48:17;6.33;;;5.90;;
50281;SDS011;36176;51.506;10.272;2023-05-19T20:50:44;6.47;;;6.07;;
50281;SDS011;36176;51.506;10.272;2023-05-19T20:53:11;3.93;;;3.57;;
50281;SDS011;36176;51.506;10.272;2023-05-19T20:55:38;3.70;;;3.40;;
50281;SDS011;36176;51.506;10.272;2023-05-19T20:58:06;5.03;;;4.63;;
50281;SDS011;36176;51.506;10.272;2023-05-19T21:00:33;4.80;;;4.50;;
50281;SDS011;36176;51.506;10.272;2023-05-19T21:03:00;4.47;;;4.03;;
50281;SDS011;36176;51.506;10.272;2023-05-19T21:05:27;4.67;;;4.37;;
50281;SDS011;36176;51.506;10.272;2023-05-19T21:07:54;5.33;;;4.97;;
50281;SDS011;36176;51.506;10.272;2023-05-19T21:10:22;3.87;;;3.57;;
50281;SDS011;36176;51.506;10.272;2023-05-19T21:12:49;5.17;;;4.77;;
50281;SDS011;36176;51.506;10.272;2023-05-19T21:15:16;4.37;;;4.07;;
50281;SDS011;36176;51.506;10.272;2023-05-19T21:17:43;4.33;;;4.03;;
50281;SDS011;36176;51.506;10.272;2023-05-19T21:20:13;4.97;;;4.47;;
50281;SDS011;36176;51.506;10.272;2023-05-19T21:22:40;3.83;;;3.53;;
50281;SDS011;36176;51.506;10.272;2023-05-19T21:25:07;5.57;;;4.23;;
50281;SDS011;36176;51.506;10.272;2023-05-19T21:27:36;4.93;;;4.50;;
50281;SDS011;36176;51.506;10.272;2023-05-19T21:30:05;4.40;;;3.87;;
50281;SDS011;36176;51.506;10.272;2023-05-19T21:32:32;5.73;;;5.07;;
50281;SDS011;36176;51.506;10.272;2023-05-19T21:35:00;4.50;;;4.10;;
50281;SDS011;36176;51.506;10.272;2023-05-19T21:37:28;5.97;;;5.57;;
50281;SDS011;36176;51.506;10.272;2023-05-19T21:39:55;3.73;;;3.43;;
50281;SDS011;36176;51.506;10.272;2023-05-19T21:42:22;4.20;;;3.87;;
50281;SDS011;36176;51.506;10.272;2023-05-19T21:44:49;4.90;;;4.50;;
50281;SDS011;36176;51.506;10.272;2023-05-19T21:47:16;8.73;;;6.40;;
50281;SDS011;36176;51.506;10.272;2023-05-19T21:49:43;3.60;;;3.30;;
50281;SDS011;36176;51.506;10.272;2023-05-19T21:52:11;4.23;;;3.83;;
50281;SDS011;36176;51.506;10.272;2023-05-19T21:54:38;4.87;;;4.30;;
50281;SDS011;36176;51.506;10.272;2023-05-19T21:57:05;4.03;;;3.53;;
50281;SDS011;36176;51.506;10.272;2023-05-19T21:59:32;3.93;;;3.63;;
50281;SDS011;36176;51.506;10.272;2023-05-19T22:01:59;4.20;;;3.80;;
50281;SDS011;36176;51.506;10.272;2023-05-19T22:04:26;3.90;;;3.50;;
50281;SDS011;36176;51.506;10.272;2023-05-19T22:06:57;4.50;;;4.20;;
50281;SDS011;36176;51.506;10.272;2023-05-19T22:09:24;5.73;;;5.33;;
50281;SDS011;36176;51.506;10.272;2023-05-19T22:11:51;4.33;;;3.97;;
50281;SDS011;36176;51.506;10.272;2023-05-19T22:14:18;4.10;;;3.60;;
50281;SDS011;36176;51.506;10.272;2023-05-19T22:16:46;4.20;;;3.90;;
50281;SDS011;36176;51.506;10.272;2023-05-19T22:19:13;3.60;;;3.40;;
50281;SDS011;36176;51.506;10.272;2023-05-19T22:21:40;3.60;;;3.30;;
50281;SDS011;36176;51.506;10.272;2023-05-19T22:24:09;3.70;;;3.30;;
50281;SDS011;36176;51.506;10.272;2023-05-19T22:26:36;4.17;;;3.87;;
50281;SDS011;36176;51.506;10.272;2023-05-19T22:29:03;3.93;;;3.50;;
50281;SDS011;36176;51.506;10.272;2023-05-19T22:31:30;5.23;;;4.83;;
50281;SDS011;36176;51.506;10.272;2023-05-19T22:33:58;4.17;;;3.87;;
50281;SDS011;36176;51.506;10.272;2023-05-19T22:36:25;4.27;;;3.97;;
50281;SDS011;36176;51.506;10.272;2023-05-19T22:38:52;4.20;;;3.90;;
50281;SDS011;36176;51.506;10.272;2023-05-19T22:41:20;3.30;;;3.10;;
50281;SDS011;36176;51.506;10.272;2023-05-19T22:43:47;3.80;;;3.40;;
50281;SDS011;36176;51.506;10.272;2023-05-19T22:46:14;4.10;;;3.07;;
50281;SDS011;36176;51.506;10.272;2023-05-19T22:48:42;3.70;;;3.40;;
50281;SDS011;36176;51.506;10.272;2023-05-19T22:51:09;3.43;;;2.93;;
50281;SDS011;36176;51.506;10.272;2023-05-19T22:53:36;4.10;;;3.73;;
50281;SDS011;36176;51.506;10.272;2023-05-19T22:56:04;4.17;;;3.80;;
50281;SDS011;36176;51.506;10.272;2023-05-19T22:58:31;4.53;;;4.13;;
50281;SDS011;36176;51.506;10.272;2023-05-19T23:00:58;4.30;;;3.90;;
50281;SDS011;36176;51.506;10.272;2023-05-19T23:03:26;4.33;;;3.93;;
50281;SDS011;36176;51.506;10.272;2023-05-19T23:05:55;3.87;;;3.50;;
50281;SDS011;36176;51.506;10.272;2023-05-19T23:08:24;3.70;;;3.40;;
50281;SDS011;36176;51.506;10.272;2023-05-19T23:10:51;4.07;;;3.50;;
50281;SDS011;36176;51.506;10.272;2023-05-19T23:13:19;3.40;;;3.20;;
50281;SDS011;36176;51.506;10.272;2023-05-19T23:15:47;4.33;;;3.83;;
50281;SDS011;36176;51.506;10.272;2023-05-19T23:18:14;3.83;;;3.53;;
50281;SDS011;36176;51.506;10.272;2023-05-19T23:20:41;3.83;;;3.43;;
50281;SDS011;36176;51.506;10.272;2023-05-19T23:23:08;4.60;;;3.40;;
50281;SDS011;36176;51.506;10.272;2023-05-19T23:25:36;4.37;;;4.07;;
50281;SDS011;36176;51.506;10.272;2023-05-19T23:28:03;4.87;;;4.57;;
50281;SDS011;36176;51.506;10.272;2023-05-19T23:30:30;3.70;;;3.40;;
50281;SDS011;36176;51.506;10.272;2023-05-19T23:32:58;3.67;;;3.37;;
50281;SDS011;36176;51.506;10.272;2023-05-19T23:35:25;4.03;;;3.73;;
50281;SDS011;36176;51.506;10.272;2023-05-19T23:37:53;3.60;;;3.23;;
50281;SDS011;36176;51.506;10.272;2023-05-19T23:40:21;3.67;;;3.33;;
50281;SDS011;36176;51.506;10.272;2023-05-19T23:42:48;3.17;;;2.87;;
50281;SDS011;36176;51.506;10.272;2023-05-19T23:45:15;3.33;;;3.10;;
50281;SDS011;36176;51.506;10.272;2023-05-19T23:47:43;5.07;;;4.57;;
50281;SDS011;36176;51.506;10.272;2023-05-19T23:50:10;4.07;;;3.10;;
50281;SDS011;36176;51.506;10.272;2023-05-19T23:52:38;4.33;;;3.20;;
50281;SDS011;36176;51.506;10.272;2023-05-19T23:55:08;4.40;;;3.83;;
50281;SDS011;36176;51.506;10.272;2023-05-19T23:57:38;3.13;;;2.83;;
